createdAt,value
2017-09-10T00:01:58.571Z,15.45
2017-09-10T00:04:25.969Z,15.48
2017-09-10T00:06:53.351Z,15.48
2017-09-10T00:09:20.755Z,15.37
2017-09-10T00:11:48.151Z,15.46
2017-09-10T00:14:15.633Z,15.48
2017-09-10T00:16:43.022Z,15.47
2017-09-10T00:19:10.423Z,15.35
2017-09-10T00:21:37.814Z,15.34
2017-09-10T00:24:05.212Z,15.14
2017-09-10T00:26:32.602Z,15.03
2017-09-10T00:28:59.994Z,15.04
2017-09-10T00:31:27.382Z,15.02
2017-09-10T00:33:54.787Z,15.10
2017-09-10T00:36:22.226Z,14.85
2017-09-10T00:38:49.635Z,14.86
2017-09-10T00:41:17.023Z,14.88
2017-09-10T00:43:44.422Z,14.73
2017-09-10T00:46:11.846Z,14.71
2017-09-10T00:48:39.242Z,14.79
2017-09-10T00:51:06.639Z,14.62
2017-09-10T00:53:34.034Z,14.52
2017-09-10T00:56:01.435Z,14.31
2017-09-10T00:58:28.838Z,14.18
2017-09-10T01:00:56.231Z,13.95
2017-09-10T01:03:23.619Z,14.10
2017-09-10T01:05:51.021Z,14.19
2017-09-10T01:08:18.414Z,14.09
2017-09-10T01:10:45.810Z,13.95
2017-09-10T01:13:13.194Z,14.12
2017-09-10T01:15:40.606Z,14.15
2017-09-10T01:18:07.996Z,14.00
2017-09-10T01:20:35.411Z,13.82
2017-09-10T01:23:02.807Z,13.92
2017-09-10T01:25:30.205Z,14.03
2017-09-10T01:27:57.601Z,14.00
2017-09-10T01:30:25.007Z,13.77
2017-09-10T01:32:52.500Z,13.87
2017-09-10T01:35:19.959Z,13.98
2017-09-10T01:37:47.374Z,14.24
2017-09-10T01:40:14.753Z,14.28
2017-09-10T01:42:42.141Z,14.46
2017-09-10T01:45:09.530Z,14.36
2017-09-10T01:47:36.931Z,14.43
2017-09-10T01:50:04.323Z,14.47
2017-09-10T01:52:31.720Z,14.56
2017-09-10T01:54:59.190Z,14.58
2017-09-10T01:57:26.590Z,14.29
2017-09-10T01:59:54.782Z,13.97
2017-09-10T02:02:22.182Z,14.04
2017-09-10T02:04:49.647Z,14.04
2017-09-10T02:07:17.048Z,14.19
2017-09-10T02:09:44.438Z,14.12
2017-09-10T02:12:11.899Z,14.11
2017-09-10T02:14:39.298Z,14.07
2017-09-10T02:17:06.690Z,13.81
2017-09-10T02:19:34.078Z,13.65
2017-09-10T02:22:01.477Z,13.70
2017-09-10T02:24:28.862Z,13.53
2017-09-10T02:26:56.275Z,13.78
2017-09-10T02:29:23.689Z,13.84
2017-09-10T02:31:51.087Z,13.69
2017-09-10T02:34:18.474Z,14.17
2017-09-10T02:36:45.926Z,14.15
2017-09-10T02:39:13.322Z,14.45
2017-09-10T02:41:40.783Z,14.40
2017-09-10T02:44:08.184Z,14.39
2017-09-10T02:46:35.577Z,14.25
2017-09-10T02:49:02.970Z,14.46
2017-09-10T02:51:30.379Z,14.33
2017-09-10T02:53:57.868Z,14.42
2017-09-10T02:56:25.256Z,14.42
2017-09-10T02:58:52.654Z,14.27
2017-09-10T03:01:20.052Z,14.13
2017-09-10T03:03:47.442Z,14.12
2017-09-10T03:06:14.834Z,14.13
2017-09-10T03:08:42.231Z,14.20
2017-09-10T03:11:09.623Z,14.02
2017-09-10T03:13:37.022Z,14.01
2017-09-10T03:16:04.414Z,13.99
2017-09-10T03:18:31.814Z,14.08
2017-09-10T03:20:59.215Z,14.06
2017-09-10T03:23:26.600Z,13.78
2017-09-10T03:25:53.999Z,13.68
2017-09-10T03:28:21.407Z,13.72
2017-09-10T03:30:48.884Z,13.77
2017-09-10T03:33:16.277Z,13.76
2017-09-10T03:35:43.667Z,13.72
2017-09-10T03:38:11.065Z,13.58
2017-09-10T03:40:38.466Z,13.45
2017-09-10T03:43:05.966Z,13.28
2017-09-10T03:45:33.363Z,13.33
2017-09-10T03:48:00.755Z,13.40
2017-09-10T03:50:28.158Z,13.46
2017-09-10T03:52:55.559Z,13.66
2017-09-10T03:55:22.960Z,13.75
2017-09-10T03:57:50.356Z,13.61
2017-09-10T04:00:17.760Z,13.77
2017-09-10T04:02:45.147Z,13.59
2017-09-10T04:05:12.550Z,13.89
2017-09-10T04:07:39.951Z,14.07
2017-09-10T04:10:07.366Z,14.12
2017-09-10T04:12:34.763Z,13.88
2017-09-10T04:15:02.162Z,13.83
2017-09-10T04:17:29.645Z,13.80
2017-09-10T04:19:57.036Z,13.60
2017-09-10T04:22:24.438Z,13.64
2017-09-10T04:24:51.912Z,13.15
2017-09-10T04:27:19.314Z,13.15
2017-09-10T04:29:46.714Z,13.05
2017-09-10T04:32:14.123Z,13.19
2017-09-10T04:34:41.510Z,12.98
2017-09-10T04:37:08.915Z,12.91
2017-09-10T04:39:36.303Z,12.88
2017-09-10T04:42:03.704Z,13.06
2017-09-10T04:44:31.094Z,12.86
2017-09-10T04:46:58.507Z,12.86
2017-09-10T04:49:25.903Z,12.95
2017-09-10T04:51:53.294Z,12.86
2017-09-10T04:54:20.688Z,12.98
2017-09-10T04:56:48.095Z,13.06
2017-09-10T04:59:15.534Z,13.16
2017-09-10T05:01:42.931Z,13.31
2017-09-10T05:04:10.346Z,13.13
2017-09-10T05:06:37.750Z,12.87
2017-09-10T05:09:05.215Z,13.04
2017-09-10T05:11:32.620Z,13.10
2017-09-10T05:14:00.023Z,13.46
2017-09-10T05:16:27.418Z,13.31
2017-09-10T05:18:54.811Z,13.32
2017-09-10T05:21:22.223Z,13.08
2017-09-10T05:23:49.611Z,13.35
2017-09-10T05:26:17.050Z,13.37
2017-09-10T05:28:44.442Z,13.51
2017-09-10T05:31:11.838Z,13.40
2017-09-10T05:33:39.243Z,13.65
2017-09-10T05:36:06.634Z,13.69
2017-09-10T05:38:34.040Z,13.63
2017-09-10T05:41:01.430Z,13.66
2017-09-10T05:43:28.827Z,13.71
2017-09-10T05:45:56.219Z,13.57
2017-09-10T05:48:23.616Z,13.60
2017-09-10T05:50:51.005Z,13.76
2017-09-10T05:53:18.399Z,13.76
2017-09-10T05:55:45.915Z,13.75
2017-09-10T05:58:13.290Z,13.91
2017-09-10T06:00:40.700Z,13.79
2017-09-10T06:03:08.094Z,13.80
2017-09-10T06:05:35.502Z,13.79
2017-09-10T06:08:02.895Z,13.93
2017-09-10T06:10:30.294Z,13.98
2017-09-10T06:12:57.694Z,13.92
2017-09-10T06:15:25.090Z,13.85
2017-09-10T06:17:52.474Z,13.96
2017-09-10T06:20:19.876Z,13.93
2017-09-10T06:22:47.270Z,13.96
2017-09-10T06:25:14.670Z,13.75
2017-09-10T06:27:42.062Z,14.08
2017-09-10T06:30:09.458Z,14.37
2017-09-10T06:32:36.858Z,13.98
2017-09-10T06:35:04.260Z,13.72
2017-09-10T06:37:31.650Z,13.81
2017-09-10T06:39:59.051Z,13.73
2017-09-10T06:42:26.442Z,13.50
2017-09-10T06:44:53.922Z,13.36
2017-09-10T06:47:21.321Z,13.63
2017-09-10T06:49:48.736Z,13.90
2017-09-10T06:52:16.126Z,13.80
2017-09-10T06:54:43.523Z,13.79
2017-09-10T06:57:10.998Z,13.64
2017-09-10T06:59:38.450Z,13.56
2017-09-10T07:02:05.851Z,13.64
2017-09-10T07:04:33.247Z,13.82
2017-09-10T07:07:00.652Z,14.00
2017-09-10T07:09:28.051Z,14.04
2017-09-10T07:11:55.446Z,14.23
2017-09-10T07:14:22.835Z,14.49
2017-09-10T07:16:50.243Z,14.58
2017-09-10T07:19:17.633Z,14.38
2017-09-10T07:21:45.027Z,14.79
2017-09-10T07:24:12.421Z,14.62
2017-09-10T07:26:39.815Z,14.71
2017-09-10T07:29:07.198Z,15.01
2017-09-10T07:31:34.622Z,14.98
2017-09-10T07:34:02.022Z,15.11
2017-09-10T07:36:29.423Z,15.24
2017-09-10T07:38:56.963Z,15.44
2017-09-10T07:41:24.338Z,15.71
2017-09-10T07:43:51.743Z,15.88
2017-09-10T07:46:19.130Z,15.84
2017-09-10T07:48:46.522Z,15.58
2017-09-10T07:51:13.915Z,15.68
2017-09-10T07:53:41.387Z,15.74
2017-09-10T07:56:08.778Z,15.60
2017-09-10T07:58:36.192Z,15.78
2017-09-10T08:01:03.578Z,15.67
2017-09-10T08:03:30.978Z,16.04
2017-09-10T08:05:58.386Z,16.20
2017-09-10T08:08:25.778Z,16.55
2017-09-10T08:10:53.170Z,16.79
2017-09-10T08:13:20.566Z,17.07
2017-09-10T08:15:47.958Z,17.31
2017-09-10T08:18:15.383Z,17.02
2017-09-10T08:20:42.800Z,17.13
2017-09-10T08:23:10.187Z,17.18
2017-09-10T08:25:37.598Z,17.11
2017-09-10T08:28:05.000Z,17.36
2017-09-10T08:30:32.394Z,17.70
2017-09-10T08:32:59.781Z,18.44
2017-09-10T08:35:27.226Z,18.93
2017-09-10T08:37:54.610Z,19.36
2017-09-10T08:40:22.011Z,19.76
2017-09-10T08:42:49.407Z,20.80
2017-09-10T08:45:16.805Z,21.74
2017-09-10T08:47:45.167Z,22.90
2017-09-10T08:50:12.557Z,22.79
2017-09-10T08:52:39.951Z,23.04
2017-09-10T08:55:07.347Z,23.54
2017-09-10T08:57:34.738Z,24.42
2017-09-10T09:00:02.130Z,24.76
2017-09-10T09:02:29.519Z,25.21
2017-09-10T09:04:56.923Z,25.41
2017-09-10T09:07:24.365Z,25.15
2017-09-10T09:09:51.769Z,24.78
2017-09-10T09:12:19.155Z,24.72
2017-09-10T09:14:46.545Z,24.57
2017-09-10T09:17:13.943Z,25.23
2017-09-10T09:19:41.334Z,25.07
2017-09-10T09:22:09.326Z,24.87
2017-09-10T09:24:36.770Z,24.80
2017-09-10T09:27:04.230Z,24.86
2017-09-10T09:29:31.622Z,23.89
2017-09-10T09:31:59.011Z,23.87
2017-09-10T09:34:26.399Z,23.96
2017-09-10T09:36:53.800Z,24.03
2017-09-10T09:39:21.187Z,23.50
2017-09-10T09:41:48.587Z,23.72
2017-09-10T09:44:15.967Z,23.19
2017-09-10T09:46:43.354Z,22.72
2017-09-10T09:49:10.739Z,22.74
2017-09-10T09:51:38.134Z,22.36
2017-09-10T09:54:05.536Z,22.65
2017-09-10T09:56:32.995Z,22.87
2017-09-10T09:59:00.375Z,22.78
2017-09-10T10:01:27.751Z,23.14
2017-09-10T10:03:55.142Z,23.18
2017-09-10T10:06:22.534Z,23.14
2017-09-10T10:08:49.925Z,23.32
2017-09-10T10:11:17.298Z,23.08
2017-09-10T10:13:44.700Z,22.91
2017-09-10T10:16:12.082Z,22.67
2017-09-10T10:18:39.466Z,22.79
2017-09-10T10:21:06.847Z,22.57
2017-09-10T10:23:34.239Z,22.68
2017-09-10T10:26:01.629Z,22.39
2017-09-10T10:28:29.019Z,22.13
2017-09-10T10:30:56.403Z,21.75
2017-09-10T10:33:23.792Z,21.53
2017-09-10T10:35:51.171Z,21.53
2017-09-10T10:38:18.645Z,21.63
2017-09-10T10:40:46.107Z,21.39
2017-09-10T10:43:14.399Z,21.17
2017-09-10T10:45:41.774Z,21.18
2017-09-10T10:48:09.164Z,21.02
2017-09-10T10:50:36.580Z,21.00
2017-09-10T10:53:03.970Z,21.03
2017-09-10T10:55:31.354Z,21.10
2017-09-10T10:57:58.735Z,21.14
2017-09-10T11:00:26.119Z,21.55
2017-09-10T11:02:53.522Z,21.53
2017-09-10T11:05:20.941Z,21.22
2017-09-10T11:07:48.286Z,21.29
2017-09-10T11:10:15.671Z,21.15
2017-09-10T11:12:43.045Z,21.20
2017-09-10T11:15:10.435Z,21.38
2017-09-10T11:17:37.817Z,21.54
2017-09-10T11:20:05.208Z,21.68
2017-09-10T11:22:32.671Z,21.78
2017-09-10T11:25:00.058Z,22.08
2017-09-10T11:27:27.475Z,22.04
2017-09-10T11:29:54.867Z,22.27
2017-09-10T11:32:22.247Z,22.80
2017-09-10T11:34:49.650Z,22.68
2017-09-10T11:37:17.035Z,22.15
2017-09-10T11:39:44.430Z,22.35
2017-09-10T11:42:11.810Z,22.35
2017-09-10T11:44:39.276Z,22.26
2017-09-10T11:47:06.654Z,22.10
2017-09-10T11:49:34.041Z,22.10
2017-09-10T11:52:01.443Z,21.49
2017-09-10T11:54:28.819Z,21.82
2017-09-10T11:56:56.209Z,22.17
2017-09-10T11:59:23.606Z,22.38
2017-09-10T12:04:17.667Z,22.46
2017-09-10T12:06:45.065Z,22.84
2017-09-10T12:09:12.528Z,22.82
2017-09-10T12:11:39.911Z,22.91
2017-09-10T12:14:07.298Z,23.25
2017-09-10T12:16:34.686Z,23.58
2017-09-10T12:19:02.063Z,23.44
2017-09-10T12:21:29.455Z,23.29
2017-09-10T12:23:56.834Z,22.91
2017-09-10T12:26:24.223Z,23.09
2017-09-10T12:28:51.658Z,22.97
2017-09-10T12:31:19.050Z,23.10
2017-09-10T12:33:46.471Z,23.27
2017-09-10T12:36:13.855Z,22.99
2017-09-10T12:38:41.244Z,22.83
2017-09-10T12:41:08.623Z,22.49
2017-09-10T12:43:36.013Z,22.74
2017-09-10T12:46:03.394Z,22.57
2017-09-10T12:48:30.806Z,22.88
2017-09-10T12:50:58.186Z,23.14
2017-09-10T12:53:25.579Z,23.20
2017-09-10T12:55:52.970Z,23.13
2017-09-10T12:58:20.366Z,22.84
2017-09-10T13:00:47.752Z,22.84
2017-09-10T13:03:15.197Z,22.75
2017-09-10T13:05:42.576Z,22.82
2017-09-10T13:08:09.982Z,22.72
2017-09-10T13:10:37.359Z,23.17
2017-09-10T13:13:04.743Z,22.72
2017-09-10T13:15:32.123Z,22.76
2017-09-10T13:17:59.513Z,22.49
2017-09-10T13:20:26.900Z,22.52
2017-09-10T13:22:54.287Z,22.70
2017-09-10T13:25:21.749Z,22.58
2017-09-10T13:27:49.144Z,22.45
2017-09-10T13:30:16.558Z,22.40
2017-09-10T13:32:43.939Z,22.23
2017-09-10T13:35:11.330Z,22.04
2017-09-10T13:37:38.735Z,22.39
2017-09-10T13:40:06.109Z,22.64
2017-09-10T13:42:33.493Z,22.43
2017-09-10T13:45:00.874Z,22.35
2017-09-10T13:47:28.354Z,22.58
2017-09-10T13:49:55.743Z,22.22
2017-09-10T13:52:23.134Z,22.07
2017-09-10T13:54:50.531Z,21.73
2017-09-10T13:57:17.975Z,21.54
2017-09-10T13:59:45.370Z,21.59
2017-09-10T14:02:12.754Z,21.92
2017-09-10T14:04:40.144Z,21.86
2017-09-10T14:07:07.532Z,21.54
2017-09-10T14:09:34.942Z,21.54
2017-09-10T14:12:02.327Z,21.90
2017-09-10T14:14:29.718Z,21.66
2017-09-10T14:16:57.098Z,21.46
2017-09-10T14:19:24.487Z,21.84
2017-09-10T14:21:51.874Z,21.79
2017-09-10T14:24:19.256Z,21.88
2017-09-10T14:26:46.743Z,22.05
2017-09-10T14:29:14.126Z,21.64
2017-09-10T14:31:41.539Z,21.50
2017-09-10T14:34:08.915Z,21.23
2017-09-10T14:36:36.303Z,21.22
2017-09-10T14:39:03.708Z,21.30
2017-09-10T14:41:31.099Z,21.11
2017-09-10T14:43:58.575Z,21.31
2017-09-10T14:46:25.963Z,21.43
2017-09-10T14:48:53.344Z,21.64
2017-09-10T14:51:20.738Z,21.65
2017-09-10T14:53:48.184Z,21.72
2017-09-10T14:56:15.558Z,21.57
2017-09-10T14:58:42.938Z,21.63
2017-09-10T15:01:10.326Z,21.54
2017-09-10T15:03:37.714Z,21.71
2017-09-10T15:06:05.099Z,21.42
2017-09-10T15:08:32.492Z,21.54
2017-09-10T15:10:59.875Z,21.41
2017-09-10T15:13:27.259Z,21.54
2017-09-10T15:15:54.639Z,21.34
2017-09-10T15:18:22.027Z,20.97
2017-09-10T15:20:49.416Z,20.97
2017-09-10T15:23:16.803Z,21.23
2017-09-10T15:25:44.187Z,21.23
2017-09-10T15:28:11.577Z,21.20
2017-09-10T15:30:38.987Z,21.24
2017-09-10T15:33:06.374Z,21.02
2017-09-10T15:35:33.754Z,20.71
2017-09-10T15:38:01.168Z,20.72
2017-09-10T15:40:28.542Z,20.82
2017-09-10T15:42:55.929Z,20.86
2017-09-10T15:45:23.307Z,20.91
2017-09-10T15:47:50.702Z,20.97
2017-09-10T15:50:18.085Z,21.17
2017-09-10T15:52:45.475Z,20.81
2017-09-10T15:55:12.864Z,20.72
2017-09-10T15:57:40.246Z,20.68
2017-09-10T16:00:07.675Z,20.57
2017-09-10T16:02:35.030Z,20.72
2017-09-10T16:05:02.428Z,20.54
2017-09-10T16:07:29.825Z,20.60
2017-09-10T16:09:57.206Z,20.40
2017-09-10T16:12:24.586Z,20.45
2017-09-10T16:14:51.984Z,20.45
2017-09-10T16:17:19.362Z,20.45
2017-09-10T16:19:46.782Z,20.46
2017-09-10T16:22:14.168Z,20.37
2017-09-10T16:24:41.559Z,20.38
2017-09-10T16:27:08.944Z,20.73
2017-09-10T16:29:36.330Z,21.02
2017-09-10T16:32:03.723Z,20.86
2017-09-10T16:34:31.143Z,20.99
2017-09-10T16:36:58.502Z,20.72
2017-09-10T16:39:25.891Z,20.66
2017-09-10T16:41:53.266Z,20.60
2017-09-10T16:44:20.658Z,20.52
2017-09-10T16:46:48.042Z,20.53
2017-09-10T16:49:15.438Z,20.62
2017-09-10T16:51:42.822Z,20.20
2017-09-10T16:54:10.203Z,20.20
2017-09-10T16:56:37.599Z,20.29
2017-09-10T16:59:04.995Z,20.13
2017-09-10T17:01:32.387Z,20.29
2017-09-10T17:03:59.762Z,20.08
2017-09-10T17:06:27.150Z,20.18
2017-09-10T17:08:54.531Z,20.30
2017-09-10T17:11:21.919Z,20.04
2017-09-10T17:13:49.304Z,20.15
2017-09-10T17:16:16.775Z,20.21
2017-09-10T17:18:44.210Z,20.07
2017-09-10T17:21:11.676Z,20.14
2017-09-10T17:23:39.051Z,19.95
2017-09-10T17:26:06.439Z,19.80
2017-09-10T17:28:33.819Z,19.51
2017-09-10T17:31:01.211Z,19.44
2017-09-10T17:33:28.771Z,19.38
2017-09-10T17:35:56.151Z,19.40
2017-09-10T17:38:23.540Z,19.24
2017-09-10T17:40:50.920Z,19.14
2017-09-10T17:43:18.380Z,19.13
2017-09-10T17:45:45.760Z,18.91
2017-09-10T17:48:13.155Z,18.93
2017-09-10T17:50:40.555Z,19.08
2017-09-10T17:53:07.940Z,19.17
2017-09-10T17:55:35.318Z,19.07
2017-09-10T17:58:02.702Z,19.19
2017-09-10T18:00:30.087Z,18.88
2017-09-10T18:02:57.471Z,18.78
2017-09-10T18:05:24.871Z,18.77
2017-09-10T18:07:52.263Z,18.59
2017-09-10T18:10:19.647Z,18.48
2017-09-10T18:12:47.038Z,18.63
2017-09-10T18:15:14.428Z,18.66
2017-09-10T18:17:42.823Z,18.72
2017-09-10T18:20:10.210Z,18.75
2017-09-10T18:22:37.686Z,18.44
2017-09-10T18:25:05.066Z,18.60
2017-09-10T18:27:32.466Z,18.50
2017-09-10T18:29:59.854Z,18.57
2017-09-10T18:32:27.318Z,18.48
2017-09-10T18:34:54.702Z,18.48
2017-09-10T18:37:22.128Z,18.42
2017-09-10T18:39:49.515Z,18.33
2017-09-10T18:42:16.895Z,18.03
2017-09-10T18:44:44.391Z,17.96
2017-09-10T18:47:11.766Z,17.94
2017-09-10T18:49:39.155Z,17.83
2017-09-10T18:52:06.553Z,17.78
2017-09-10T18:57:07.791Z,17.86
2017-09-10T18:59:35.183Z,17.63
2017-09-10T19:02:02.958Z,17.66
2017-09-10T19:04:30.347Z,17.50
2017-09-10T19:06:57.735Z,17.56
2017-09-10T19:09:25.133Z,17.56
2017-09-10T19:11:52.502Z,17.38
2017-09-10T19:14:19.890Z,17.24
2017-09-10T19:16:47.274Z,17.24
2017-09-10T19:19:14.726Z,17.11
2017-09-10T19:21:42.101Z,16.91
2017-09-10T19:24:09.490Z,16.92
2017-09-10T19:26:36.894Z,16.75
2017-09-10T19:29:04.279Z,16.64
2017-09-10T19:31:31.679Z,16.48
2017-09-10T19:33:59.069Z,16.43
2017-09-10T19:36:26.454Z,16.54
2017-09-10T19:38:53.831Z,16.47
2017-09-10T19:41:21.226Z,16.54
2017-09-10T19:43:48.598Z,16.44
2017-09-10T19:46:15.991Z,16.37
2017-09-10T19:48:43.371Z,16.28
2017-09-10T19:51:10.762Z,16.16
2017-09-10T19:53:38.142Z,16.02
2017-09-10T19:56:05.527Z,16.15
2017-09-10T19:58:32.906Z,16.15
2017-09-10T20:01:00.294Z,15.92
2017-09-10T20:03:27.675Z,15.85
2017-09-10T20:05:55.058Z,15.75
2017-09-10T20:08:22.444Z,15.72
2017-09-10T20:10:49.835Z,15.85
2017-09-10T20:13:17.214Z,15.81
2017-09-10T20:15:44.597Z,15.76
2017-09-10T20:18:11.982Z,15.86
2017-09-10T20:20:39.372Z,15.99
2017-09-10T20:23:06.758Z,15.87
2017-09-10T20:25:34.138Z,15.68
2017-09-10T20:28:01.523Z,15.63
2017-09-10T20:30:28.935Z,15.62
2017-09-10T20:32:56.387Z,15.58
2017-09-10T20:35:23.771Z,15.57
2017-09-10T20:37:51.163Z,15.53
2017-09-10T20:40:18.551Z,15.65
2017-09-10T20:42:45.939Z,15.42
2017-09-10T20:45:13.327Z,15.62
2017-09-10T20:47:40.715Z,15.52
2017-09-10T20:50:08.099Z,15.47
2017-09-10T20:52:35.488Z,15.56
2017-09-10T20:55:02.867Z,15.44
2017-09-10T20:57:30.260Z,15.36
2017-09-10T20:59:57.658Z,15.30
2017-09-10T21:02:25.064Z,15.47
2017-09-10T21:04:52.506Z,15.40
2017-09-10T21:07:19.957Z,15.36
2017-09-10T21:09:47.420Z,15.32
2017-09-10T21:12:14.871Z,15.39
2017-09-10T21:14:42.266Z,15.48
2017-09-10T21:17:09.650Z,15.56
2017-09-10T21:19:37.042Z,15.37
2017-09-10T21:22:04.423Z,15.41
2017-09-10T21:24:31.841Z,15.25
2017-09-10T21:26:59.222Z,15.26
2017-09-10T21:29:26.610Z,15.22
2017-09-10T21:31:54.006Z,15.29
2017-09-10T21:34:21.383Z,15.22
2017-09-10T21:36:48.767Z,15.13
2017-09-10T21:39:16.150Z,15.35
2017-09-10T21:41:43.541Z,15.19
2017-09-10T21:44:10.931Z,15.31
2017-09-10T21:46:38.316Z,15.15
2017-09-10T21:49:05.699Z,15.12
2017-09-10T21:51:33.082Z,15.23
2017-09-10T21:54:00.507Z,15.33
2017-09-10T21:56:27.886Z,15.14
2017-09-10T21:58:55.266Z,15.15
2017-09-10T22:01:22.658Z,15.33
2017-09-10T22:03:50.039Z,15.43
2017-09-10T22:06:17.418Z,15.19
2017-09-10T22:08:44.809Z,15.17
2017-09-10T22:11:12.298Z,15.22
2017-09-10T22:13:39.758Z,15.18
2017-09-10T22:16:07.148Z,15.09
2017-09-10T22:18:34.525Z,14.99
2017-09-10T22:21:01.919Z,14.96
2017-09-10T22:23:29.299Z,14.82
2017-09-10T22:25:56.768Z,14.89
2017-09-10T22:28:24.242Z,14.83
2017-09-10T22:30:51.647Z,14.92
2017-09-10T22:33:19.106Z,14.89
2017-09-10T22:35:46.491Z,14.99
2017-09-10T22:38:13.866Z,15.04
2017-09-10T22:40:41.266Z,15.10
2017-09-10T22:43:08.727Z,14.94
2017-09-10T22:45:36.119Z,15.03
2017-09-10T22:48:03.502Z,14.88
2017-09-10T22:50:30.894Z,15.11
2017-09-10T22:52:58.286Z,15.10
2017-09-10T22:55:25.710Z,15.06
2017-09-10T22:57:53.097Z,15.05
2017-09-10T23:00:20.474Z,14.98
2017-09-10T23:02:47.863Z,15.03
2017-09-10T23:05:15.247Z,14.96
2017-09-10T23:07:42.645Z,14.88
2017-09-10T23:10:10.023Z,14.84
2017-09-10T23:12:37.407Z,14.90
2017-09-10T23:15:04.794Z,14.98
2017-09-10T23:17:32.198Z,14.93
2017-09-10T23:19:59.587Z,15.00
2017-09-10T23:22:27.027Z,14.97
2017-09-10T23:24:54.406Z,15.00
2017-09-10T23:27:21.803Z,14.98
2017-09-10T23:29:49.195Z,14.92
2017-09-10T23:32:16.587Z,14.88
2017-09-10T23:34:43.979Z,14.99
2017-09-10T23:37:11.380Z,14.85
2017-09-10T23:39:38.764Z,14.84
2017-09-10T23:42:06.253Z,14.73
2017-09-10T23:44:33.650Z,14.79
2017-09-10T23:47:01.036Z,14.96
2017-09-10T23:49:28.422Z,14.96
2017-09-10T23:51:55.807Z,15.05
2017-09-10T23:54:23.191Z,14.93
2017-09-10T23:56:50.570Z,14.81
2017-09-10T23:59:17.955Z,14.91
